Lordville, New York
Current Conditions -  °F | °C
As of 10:55 AM on Thursday 23 Oct 2014 (Local Time) from KMSV Reporting Station
Overcast Overcast  
Wind Chill: 40°   Ceiling: 1600
Heat Index: 46°   Visibility: 10mi
Dew Point: 45°   Wind: 15mph
Humidity: 93%   Direction: 350°N
Pressure: 29.8"   Gusts: 24mph
Location:  41.9099°N, 75.1815°W
Report Text: KMSV 231455Z AUTO 35013G21KT 10SM OVC016 08/07 A2980 RMK AO1 54000
Loading
Personal Weather Stations






























Interactive Weather Map
Tropical Storm Tracking
New forecast layout! Learn more

10-Day Weather Forecast

Advertisements
Track Severe Weather on mobile